Time;durP1;ratioP1;P1;durP2;ratioP2;P2;SDS_P1;SDS_P2;PMS_P1;PMS_P2;Temp;Humidity;BMP_temperature;BMP_pressure;BME280_temperature;BME280_humidity;BME280_pressure;Samples;Min_cycle;Max_cycle;Signal;HPM_P1;HPM_P2
2022/11/16 00:02:08;;;;;;;7.38;3.40;;;13.20;90.40;;;;;;4985533;28;20038;-58
2022/11/16 00:04:34;;;;;;;10.98;4.65;;;13.20;90.30;;;;;;4989602;28;20045;-62
2022/11/16 00:07:01;;;;;;;14.13;4.37;;;13.20;90.50;;;;;;4986534;28;20047;-62
2022/11/16 00:09:28;;;;;;;10.25;3.30;;;13.10;90.50;;;;;;4985317;28;20089;-62
2022/11/16 00:11:59;;;;;;;7.25;3.42;;;13.10;90.50;;;;;;4987723;28;20034;-61
2022/11/16 00:14:30;;;;;;;6.20;2.58;;;13.00;90.50;;;;;;4987508;28;20034;-59
2022/11/16 00:16:56;;;;;;;4.65;2.30;;;13.10;90.40;;;;;;4986711;28;20026;-60
2022/11/16 00:19:23;;;;;;;4.32;2.10;;;13.00;90.40;;;;;;4983857;28;20035;-58
2022/11/16 00:21:49;;;;;;;;;;;13.00;90.50;;;;;;4988244;28;20026;-61
2022/11/16 00:24:17;;;;;;;7.38;2.05;;;13.00;90.60;;;;;;4988360;28;19913;-59
2022/11/16 00:26:44;;;;;;;5.68;2.25;;;12.90;90.60;;;;;;4987641;28;20138;-61
2022/11/16 00:29:17;;;;;;;;;;;12.80;90.80;;;;;;4988202;28;20622;-60
2022/11/16 00:31:43;;;;;;;12.35;5.30;;;12.80;90.90;;;;;;4988308;28;20263;-59
2022/11/16 00:34:09;;;;;;;15.35;4.93;;;12.80;90.90;;;;;;4983459;28;20022;-61
2022/11/16 00:36:34;;;;;;;5.03;3.23;;;12.80;90.80;;;;;;4987249;28;20601;-61
2022/11/16 00:39:00;;;;;;;6.93;2.80;;;12.90;90.90;;;;;;4986222;28;20038;-62
2022/11/16 00:41:25;;;;;;;6.67;2.37;;;12.90;90.80;;;;;;4989194;28;20030;-61
2022/11/16 00:43:51;;;;;;;7.60;2.47;;;13.00;90.70;;;;;;4984462;28;20410;-59
2022/11/16 00:46:16;;;;;;;4.30;2.70;;;13.00;90.60;;;;;;4987027;28;20077;-61
2022/11/16 00:48:42;;;;;;;4.23;2.80;;;13.00;90.50;;;;;;4987793;28;20030;-61
2022/11/16 00:51:08;;;;;;;4.97;1.70;;;13.00;90.50;;;;;;4984005;28;20058;-61
2022/11/16 00:53:34;;;;;;;6.67;2.00;;;12.90;90.40;;;;;;4986178;28;20035;-62
2022/11/16 00:56:00;;;;;;;;;;;12.90;90.40;;;;;;4989135;28;20453;-62
2022/11/16 00:58:25;;;;;;;1.40;1.20;;;12.90;90.30;;;;;;4982885;28;19910;-61
2022/11/16 01:00:51;;;;;;;1.53;1.10;;;12.90;90.20;;;;;;4983597;28;20545;-61
2022/11/16 01:03:17;;;;;;;2.72;1.58;;;12.90;90.30;;;;;;4984071;28;20109;-61
2022/11/16 01:05:42;;;;;;;2.47;1.20;;;12.80;90.30;;;;;;4987736;28;20077;-62
2022/11/16 01:08:08;;;;;;;3.07;1.10;;;12.90;90.20;;;;;;4988246;28;20097;-61
2022/11/16 01:10:36;;;;;;;3.33;1.10;;;12.90;90.10;;;;;;4986046;28;20033;-62
2022/11/16 01:13:02;;;;;;;3.58;1.20;;;12.90;89.90;;;;;;4988756;28;20034;-60
2022/11/16 01:15:27;;;;;;;7.27;1.47;;;12.90;90.00;;;;;;4986510;28;20100;-61
2022/11/16 01:17:54;;;;;;;2.63;1.47;;;12.90;90.00;;;;;;4985470;28;20023;-58
2022/11/16 01:20:25;;;;;;;7.13;1.63;;;12.80;90.10;;;;;;4986031;28;20039;-59
2022/11/16 01:22:52;;;;;;;5.90;1.40;;;12.80;90.10;;;;;;4985751;28;20664;-60
2022/11/16 01:25:18;;;;;;;8.00;1.40;;;12.80;90.00;;;;;;4986680;28;20445;-58
2022/11/16 01:27:44;;;;;;;9.25;1.70;;;12.80;89.90;;;;;;4985701;28;20035;-57
2022/11/16 01:30:13;;;;;;;2.95;1.42;;;12.80;89.70;;;;;;4984857;28;20057;-57
2022/11/16 01:32:38;;;;;;;2.65;1.05;;;12.80;89.80;;;;;;4985670;28;20027;-57
2022/11/16 01:35:05;;;;;;;2.10;1.30;;;12.70;89.60;;;;;;4983621;28;20109;-58
2022/11/16 01:37:31;;;;;;;4.88;1.70;;;12.70;89.80;;;;;;4987498;28;20073;-59
2022/11/16 01:39:57;;;;;;;2.65;1.88;;;12.70;90.20;;;;;;4986296;28;20094;-58
2022/11/16 01:42:28;;;;;;;4.40;1.60;;;12.70;90.00;;;;;;4984484;28;20049;-57
2022/11/16 01:45:01;;;;;;;4.38;1.67;;;12.70;90.10;;;;;;4984186;28;20023;-57
2022/11/16 01:47:27;;;;;;;2.42;1.65;;;12.60;90.40;;;;;;4986388;28;20070;-57
2022/11/16 01:50:09;;;;;;;37.03;4.82;;;12.60;90.60;;;;;;4990260;28;20100;-59
2022/11/16 01:52:39;;;;;;;3.70;2.08;;;12.50;90.80;;;;;;4993421;28;20038;-57
2022/11/16 01:55:05;;;;;;;4.40;2.15;;;12.50;90.70;;;;;;4990818;28;20302;-59
2022/11/16 01:57:35;;;;;;;2.88;1.80;;;12.50;90.60;;;;;;4987771;28;20102;-57
2022/11/16 02:00:03;;;;;;;7.40;1.80;;;12.60;90.50;;;;;;4990118;28;20026;-57
2022/11/16 02:02:29;;;;;;;3.50;2.03;;;12.60;90.40;;;;;;4991705;28;20057;-57
2022/11/16 02:04:57;;;;;;;3.70;2.43;;;12.60;90.30;;;;;;4990291;28;20058;-57
2022/11/16 02:11:00;;;;;;;5.90;2.28;;;12.60;90.20;;;;;;4985588;28;20052;-61
2022/11/16 02:13:46;;;;;;;7.90;1.95;;;12.60;90.20;;;;;;4992709;28;20053;-62
2022/11/16 02:16:47;;;;;;;3.75;2.10;;;12.60;90.20;;;;;;4992585;28;20668;-62
2022/11/16 02:19:27;;;;;;;16.00;3.20;;;12.60;90.10;;;;;;4986196;28;20038;-63
2022/11/16 02:22:25;;;;;;;4.05;2.22;;;12.60;90.10;;;;;;4987882;28;20026;-58
2022/11/16 02:25:03;;;;;;;5.47;2.30;;;12.60;90.10;;;;;;4991604;28;20096;-60
2022/11/16 02:27:49;;;;;;;4.78;2.45;;;12.60;90.40;;;;;;4994347;28;20034;-61
2022/11/16 02:30:17;;;;;;;5.47;2.60;;;12.60;90.10;;;;;;4992699;28;20534;-58
2022/11/16 02:32:47;;;;;;;3.10;2.20;;;12.60;90.00;;;;;;4991512;28;20109;-62
2022/11/16 02:35:31;;;;;;;8.05;2.28;;;12.60;89.80;;;;;;4992993;28;20034;-62
2022/11/16 02:38:02;;;;;;;4.72;2.17;;;12.60;89.90;;;;;;4984941;28;20031;-61
2022/11/16 02:40:30;;;;;;;5.65;2.20;;;12.60;89.60;;;;;;4994593;28;20469;-62
2022/11/16 02:43:13;;;;;;;7.40;2.67;;;12.50;89.80;;;;;;4990797;28;20030;-62
2022/11/16 02:45:44;;;;;;;4.82;2.17;;;12.50;89.60;;;;;;4992254;28;20510;-58
2022/11/16 02:48:23;;;;;;;4.38;1.92;;;12.50;89.40;;;;;;4989363;28;20394;-62
2022/11/16 02:50:51;;;;;;;4.57;2.28;;;12.40;89.30;;;;;;4990541;28;20030;-61
2022/11/16 02:53:20;;;;;;;3.70;2.05;;;12.40;89.60;;;;;;4992299;28;20109;-62
2022/11/16 02:55:45;;;;;;;4.55;3.00;;;12.30;89.60;;;;;;4991883;28;20038;-60
2022/11/16 02:58:16;;;;;;;6.83;2.90;;;12.30;89.90;;;;;;4988310;28;20898;-62
2022/11/16 03:01:02;;;;;;;10.55;3.60;;;12.30;90.00;;;;;;4991607;28;20054;-62
2022/11/16 03:03:48;;;;;;;12.25;3.88;;;12.30;90.10;;;;;;4989547;28;20053;-62
2022/11/16 03:06:22;;;;;;;4.63;3.17;;;12.30;90.20;;;;;;4987743;28;20031;-61
2022/11/16 03:08:55;;;;;;;4.93;2.83;;;12.30;90.10;;;;;;4988058;28;20490;-61
2022/11/16 03:14:10;;;;;;;6.93;2.70;;;12.20;90.10;;;;;;4982609;28;20054;-62
2022/11/16 03:16:43;;;;;;;3.60;2.75;;;12.30;90.00;;;;;;4988656;28;20030;-62
2022/11/16 03:19:12;;;;;;;7.63;2.60;;;12.20;89.90;;;;;;4987224;28;20560;-57
2022/11/16 03:21:38;;;;;;;5.57;2.72;;;12.20;89.90;;;;;;4988741;28;20416;-61
2022/11/16 03:24:05;;;;;;;4.53;2.50;;;12.30;89.90;;;;;;4988240;28;20518;-61
2022/11/16 03:26:53;;;;;;;;;;;12.20;89.70;;;;;;4991275;28;20042;-60
2022/11/16 03:29:30;;;;;;;3.95;2.38;;;12.20;89.50;;;;;;4983685;28;19910;-57
2022/11/16 03:32:03;;;;;;;8.20;2.63;;;12.20;89.40;;;;;;4987965;28;20046;-59
2022/11/16 03:34:33;;;;;;;8.32;2.40;;;12.20;89.40;;;;;;4988358;28;20406;-58
2022/11/16 03:37:00;;;;;;;8.43;2.80;;;12.20;89.60;;;;;;4986898;28;20507;-58
2022/11/16 03:39:32;;;;;;;4.80;2.60;;;12.20;89.60;;;;;;4989405;28;20133;-58
2022/11/16 03:42:01;;;;;;;8.30;2.45;;;12.20;89.20;;;;;;4987070;28;20030;-57
2022/11/16 03:44:27;;;;;;;6.85;2.50;;;12.10;89.40;;;;;;4988259;28;20030;-57
2022/11/16 03:46:53;;;;;;;9.52;2.85;;;12.10;89.30;;;;;;4987006;28;20505;-56
2022/11/16 03:49:22;;;;;;;5.27;2.30;;;12.10;89.40;;;;;;4988578;28;20061;-57
2022/11/16 03:51:49;;;;;;;4.95;2.47;;;12.10;89.40;;;;;;4988870;28;20027;-57
2022/11/16 03:54:14;;;;;;;3.58;2.33;;;12.10;89.50;;;;;;4986943;28;20035;-57
2022/11/16 03:56:40;;;;;;;3.33;2.33;;;12.10;89.50;;;;;;4988961;28;20023;-57
2022/11/16 03:59:05;;;;;;;7.87;2.00;;;12.00;89.30;;;;;;4985782;28;20037;-57
2022/11/16 04:01:31;;;;;;;2.87;2.00;;;12.00;89.10;;;;;;4988010;28;20513;-58
2022/11/16 04:03:57;;;;;;;6.47;2.40;;;12.00;89.10;;;;;;4987619;28;20046;-59
2022/11/16 04:25:50;;;;;;;7.72;2.90;;;11.70;90.00;;;;;;4986049;28;20113;-58
2022/11/16 04:28:23;;;;;;;6.32;2.50;;;11.70;90.00;;;;;;4987542;28;20181;-57
2022/11/16 04:39:05;;;;;;;7.18;2.30;;;11.70;89.80;;;;;;4987373;28;20033;-61
2022/11/16 04:44:15;;;;;;;5.47;2.05;;;11.70;89.10;;;;;;4985108;28;20057;-60
2022/11/16 04:49:25;;;;;;;3.30;1.40;;;11.70;88.90;;;;;;4988262;28;20776;-59
2022/11/16 04:51:51;;;;;;;4.30;1.50;;;11.70;89.00;;;;;;4987631;28;20022;-59
2022/11/16 04:54:17;;;;;;;1.00;0.90;;;11.80;88.70;;;;;;4984147;28;20372;-60
2022/11/16 04:56:42;;;;;;;2.30;1.37;;;11.70;88.70;;;;;;4986161;28;20026;-60
2022/11/16 04:59:08;;;;;;;6.00;1.90;;;11.70;88.40;;;;;;4985523;28;20113;-61
2022/11/16 05:04:18;;;;;;;2.38;1.35;;;11.60;88.60;;;;;;4986558;28;20093;-60
2022/11/16 05:06:43;;;;;;;6.80;2.00;;;11.60;88.70;;;;;;4987572;28;20043;-57
2022/11/16 05:09:09;;;;;;;3.87;3.37;;;11.60;88.60;;;;;;4983370;28;20105;-58
2022/11/16 05:11:34;;;;;;;3.50;3.00;;;11.50;88.40;;;;;;4987853;28;20026;-60
2022/11/16 05:14:01;;;;;;;4.93;2.83;;;11.50;88.80;;;;;;4979746;28;20041;-58
2022/11/16 05:16:26;;;;;;;11.65;4.47;;;11.40;89.40;;;;;;4984125;28;20026;-60
2022/11/16 05:21:36;;;;;;;5.03;4.15;;;11.30;89.10;;;;;;4987110;28;20065;-57
2022/11/16 05:26:46;;;;;;;5.38;2.47;;;11.20;88.70;;;;;;4986188;28;20100;-60
2022/11/16 05:29:12;;;;;;;7.03;3.00;;;11.20;88.60;;;;;;4986482;28;20735;-61
2022/11/16 05:31:38;;;;;;;8.47;2.87;;;11.10;89.10;;;;;;4988583;28;20120;-61
2022/11/16 05:34:04;;;;;;;2.97;2.37;;;11.00;88.60;;;;;;4986825;28;20042;-57
2022/11/16 05:36:29;;;;;;;8.20;3.33;;;11.00;88.60;;;;;;4980523;28;20426;-57
2022/11/16 05:38:55;;;;;;;5.63;3.17;;;11.00;88.70;;;;;;4982603;28;20042;-61
2022/11/16 05:41:20;;;;;;;8.20;2.67;;;10.90;88.60;;;;;;4987028;28;20308;-59
2022/11/16 05:43:46;;;;;;;5.50;2.67;;;10.90;87.80;;;;;;4986726;28;20406;-57
2022/11/16 05:46:12;;;;;;;5.47;2.20;;;10.90;87.40;;;;;;4988471;28;20046;-58
2022/11/16 05:48:37;;;;;;;3.27;2.50;;;10.90;87.10;;;;;;4983875;28;20030;-61
2022/11/16 05:51:03;;;;;;;6.87;2.77;;;10.80;88.00;;;;;;4984719;28;20053;-59
2022/11/16 05:53:28;;;;;;;9.70;3.03;;;10.80;87.80;;;;;;4985184;28;20023;-57
2022/11/16 05:55:54;;;;;;;9.80;3.20;;;10.80;87.70;;;;;;4987774;28;20046;-57
2022/11/16 05:58:20;;;;;;;5.47;3.40;;;10.80;87.60;;;;;;4985544;28;20050;-59
2022/11/16 06:00:46;;;;;;;7.57;3.27;;;10.80;87.70;;;;;;4984933;28;20093;-57
2022/11/16 06:03:12;;;;;;;9.20;3.33;;;10.70;88.50;;;;;;4983817;28;20419;-57
2022/11/16 06:05:38;;;;;;;5.70;2.92;;;10.60;88.90;;;;;;4987907;28;20077;-58
2022/11/16 06:08:04;;;;;;;6.67;3.10;;;10.60;89.00;;;;;;4983267;28;20422;-58
2022/11/16 06:10:29;;;;;;;6.45;3.75;;;10.60;89.40;;;;;;4986347;28;20769;-57
2022/11/16 06:12:55;;;;;;;7.77;3.33;;;10.60;89.30;;;;;;4984870;28;20056;-58
2022/11/16 06:15:21;;;;;;;10.40;3.27;;;10.50;89.20;;;;;;4984708;28;20553;-58
2022/11/16 06:17:46;;;;;;;9.17;2.90;;;10.40;89.50;;;;;;4985776;28;20034;-57
2022/11/16 06:20:12;;;;;;;7.40;2.80;;;10.40;89.70;;;;;;4984824;28;20030;-57
2022/11/16 06:22:38;;;;;;;8.43;3.00;;;10.40;90.10;;;;;;4985617;28;20025;-57
2022/11/16 06:25:07;;;;;;;6.75;2.78;;;10.40;90.10;;;;;;4984561;28;20060;-58
2022/11/16 06:27:33;;;;;;;5.40;3.05;;;10.40;89.90;;;;;;4986012;28;20030;-61
2022/11/16 06:29:59;;;;;;;4.00;2.70;;;10.30;90.00;;;;;;4985192;28;20026;-62
2022/11/16 06:32:25;;;;;;;8.13;2.70;;;10.40;89.90;;;;;;4985224;28;20396;-61
2022/11/16 06:34:51;;;;;;;5.22;2.83;;;10.40;89.50;;;;;;4984573;28;20744;-62
2022/11/16 06:37:17;;;;;;;5.63;2.33;;;10.30;89.40;;;;;;4990163;28;20030;-59
2022/11/16 06:39:43;;;;;;;5.30;2.30;;;10.30;89.40;;;;;;4986644;28;20403;-57
2022/11/16 06:42:09;;;;;;;6.20;3.70;;;10.40;89.50;;;;;;4988397;28;20038;-57
2022/11/16 06:44:35;;;;;;;9.03;2.50;;;10.40;88.90;;;;;;4988645;28;20030;-58
2022/11/16 06:47:01;;;;;;;3.17;2.10;;;10.40;88.20;;;;;;4988714;28;20140;-57
2022/11/16 06:49:27;;;;;;;4.03;2.10;;;10.40;88.20;;;;;;4990061;28;20066;-57
2022/11/16 06:51:52;;;;;;;6.33;2.57;;;10.40;88.20;;;;;;4988031;28;20320;-57
2022/11/16 06:54:18;;;;;;;4.83;2.47;;;10.40;88.20;;;;;;4990362;28;20185;-62
2022/11/16 06:56:43;;;;;;;7.90;2.50;;;10.30;88.50;;;;;;4989091;28;20088;-62
2022/11/16 06:59:09;;;;;;;5.83;2.67;;;10.30;88.40;;;;;;4989185;28;20022;-59
2022/11/16 07:01:35;;;;;;;18.63;12.03;;;10.30;88.50;;;;;;4989371;28;20026;-61
2022/11/16 07:04:00;;;;;;;12.53;5.93;;;10.30;88.20;;;;;;4988170;28;20027;-57
2022/11/16 07:06:26;;;;;;;7.77;5.13;;;10.40;87.90;;;;;;4987942;28;20860;-61
2022/11/16 07:08:52;;;;;;;13.48;7.25;;;10.30;87.30;;;;;;4986921;28;20062;-59
2022/11/16 07:11:19;;;;;;;13.47;7.23;;;10.30;87.40;;;;;;4988462;28;20116;-62
2022/11/16 07:13:45;;;;;;;9.63;5.22;;;10.30;87.70;;;;;;4991327;28;20037;-61
2022/11/16 07:16:11;;;;;;;8.75;5.00;;;10.30;87.60;;;;;;4987600;28;20106;-62
2022/11/16 07:18:40;;;;;;;12.05;5.60;;;10.30;87.40;;;;;;4986643;28;20045;-61
2022/11/16 07:21:14;;;;;;;14.82;9.93;;;10.20;87.70;;;;;;4988835;28;20474;-62
2022/11/16 07:23:40;;;;;;;12.95;4.55;;;10.20;88.00;;;;;;4988794;28;20030;-62
2022/11/16 07:26:07;;;;;;;7.97;5.27;;;10.20;87.60;;;;;;4988318;28;20042;-61
2022/11/16 07:28:33;;;;;;;6.68;4.38;;;10.10;86.90;;;;;;4993018;28;20037;-62
2022/11/16 07:31:07;;;;;;;12.10;4.38;;;10.00;87.20;;;;;;4988189;28;20027;-63
2022/11/16 07:33:34;;;;;;;6.47;4.20;;;10.10;87.60;;;;;;4987903;28;20506;-61
2022/11/16 07:36:01;;;;;;;11.55;3.70;;;10.10;86.90;;;;;;4984910;28;20054;-63
2022/11/16 07:38:29;;;;;;;5.22;3.72;;;10.10;87.10;;;;;;4990099;28;20054;-68
2022/11/16 07:41:02;;;;;;;6.03;4.10;;;10.10;87.20;;;;;;4987609;28;20513;-62
2022/11/16 07:43:30;;;;;;;11.30;4.97;;;10.10;87.20;;;;;;4988768;28;20084;-63
2022/11/16 07:46:02;;;;;;;6.13;4.18;;;10.10;87.00;;;;;;4987722;28;20034;-59
2022/11/16 07:48:27;;;;;;;13.38;4.80;;;10.10;86.80;;;;;;4987226;28;20038;-59
2022/11/16 07:50:53;;;;;;;8.43;4.40;;;10.00;88.10;;;;;;4987216;28;20026;-57
2022/11/16 07:53:18;;;;;;;10.27;5.43;;;10.10;88.50;;;;;;4990432;28;20034;-61
2022/11/16 07:55:51;;;;;;;9.37;5.17;;;10.10;88.30;;;;;;4988241;28;20042;-59
2022/11/16 07:58:16;;;;;;;10.68;5.05;;;10.10;88.50;;;;;;4989613;28;20028;-62
2022/11/16 08:00:42;;;;;;;10.23;4.20;;;10.10;88.00;;;;;;4988783;28;20026;-64
2022/11/16 08:03:07;;;;;;;6.93;3.67;;;10.20;88.10;;;;;;4986364;28;20098;-66
2022/11/16 08:05:33;;;;;;;9.00;4.07;;;10.20;87.80;;;;;;4988565;28;20037;-63
2022/11/16 08:07:59;;;;;;;8.37;5.07;;;10.20;87.50;;;;;;4987803;28;20509;-65
2022/11/16 08:10:24;;;;;;;7.43;4.97;;;10.20;87.90;;;;;;4985873;28;20034;-60
2022/11/16 08:12:50;;;;;;;6.63;4.67;;;10.20;87.60;;;;;;4986997;28;20054;-57
2022/11/16 08:15:16;;;;;;;9.70;4.55;;;10.30;87.80;;;;;;4985712;28;20030;-58
2022/11/16 08:17:42;;;;;;;8.43;4.90;;;10.30;87.90;;;;;;4989377;28;20026;-57
2022/11/16 08:20:08;;;;;;;6.83;4.27;;;10.30;87.10;;;;;;4986093;28;20297;-58
2022/11/16 08:22:34;;;;;;;7.65;4.63;;;10.30;87.10;;;;;;4980271;28;20077;-63
2022/11/16 08:24:59;;;;;;;8.40;5.97;;;10.40;87.50;;;;;;4983441;28;20042;-57
2022/11/16 08:27:25;;;;;;;10.67;7.13;;;10.40;87.70;;;;;;4986400;28;20430;-60
2022/11/16 08:29:51;;;;;;;9.87;6.00;;;10.40;88.10;;;;;;4987262;28;20038;-57
2022/11/16 08:32:16;;;;;;;17.07;9.67;;;10.40;87.60;;;;;;4984681;28;20490;-59
2022/11/16 08:34:42;;;;;;;10.87;7.00;;;10.50;88.00;;;;;;4985138;28;20042;-58
2022/11/16 08:37:07;;;;;;;18.50;8.87;;;10.60;88.20;;;;;;4984947;28;20053;-58
2022/11/16 08:39:33;;;;;;;20.33;10.67;;;10.60;88.30;;;;;;4987131;28;20038;-57
2022/11/16 08:41:58;;;;;;;16.43;8.83;;;10.70;89.30;;;;;;4985534;28;20034;-59
2022/11/16 08:44:24;;;;;;;9.23;5.70;;;10.80;88.80;;;;;;4985635;28;20506;-62
2022/11/16 08:46:49;;;;;;;15.63;5.90;;;10.80;89.30;;;;;;4987181;28;20041;-62
2022/11/16 08:49:15;;;;;;;8.87;5.70;;;10.80;89.00;;;;;;4985489;28;20037;-62
2022/11/16 08:51:41;;;;;;;17.10;6.93;;;10.90;88.60;;;;;;4986918;28;20168;-58
2022/11/16 08:54:06;;;;;;;22.83;7.17;;;10.90;89.60;;;;;;4986987;28;20615;-57
2022/11/16 08:56:32;;;;;;;22.53;7.70;;;11.00;89.70;;;;;;4986521;28;20030;-57
2022/11/16 08:58:58;;;;;;;16.30;7.33;;;11.00;89.50;;;;;;4984937;28;20030;-57
2022/11/16 09:01:25;;;;;;;20.03;8.13;;;11.00;89.40;;;;;;4985516;28;20826;-58
2022/11/16 09:03:52;;;;;;;22.27;7.40;;;11.10;89.20;;;;;;4983955;28;20026;-56
2022/11/16 09:06:18;;;;;;;17.92;6.72;;;11.10;89.50;;;;;;4989168;28;20070;-60
2022/11/16 09:08:45;;;;;;;13.03;7.33;;;11.10;89.40;;;;;;4985178;28;20109;-57
2022/11/16 09:11:17;;;;;;;9.85;5.97;;;11.10;89.50;;;;;;4984805;28;20045;-59
2022/11/16 09:13:44;;;;;;;10.15;5.47;;;11.10;88.80;;;;;;4983510;28;20049;-57
2022/11/16 09:16:10;;;;;;;8.07;4.97;;;11.10;89.10;;;;;;4986303;28;20042;-58
2022/11/16 09:18:36;;;;;;;11.23;5.90;;;11.10;89.10;;;;;;4985037;28;20026;-58
2022/11/16 09:21:01;;;;;;;9.82;4.93;;;11.20;89.20;;;;;;4980017;28;20411;-56
2022/11/16 09:23:27;;;;;;;10.87;4.63;;;11.10;89.10;;;;;;4986182;28;20034;-60
2022/11/16 09:25:53;;;;;;;16.03;7.43;;;11.20;88.70;;;;;;4984056;28;20120;-61
2022/11/16 09:28:19;;;;;;;11.23;7.05;;;11.10;89.00;;;;;;4982801;28;20684;-59
2022/11/16 09:30:47;;;;;;;12.75;7.32;;;11.20;89.10;;;;;;4984185;28;20034;-60
2022/11/16 09:33:13;;;;;;;13.10;7.25;;;11.20;89.50;;;;;;4978514;28;20030;-61
2022/11/16 09:35:39;;;;;;;14.57;6.73;;;11.20;89.50;;;;;;4980767;28;20443;-61
2022/11/16 09:38:04;;;;;;;19.03;6.77;;;11.20;89.20;;;;;;4977635;28;20027;-61
2022/11/16 09:40:35;;;;;;;12.18;6.88;;;11.30;89.20;;;;;;4983353;28;20033;-60
2022/11/16 09:43:12;;;;;;;11.27;6.28;;;11.40;89.50;;;;;;4981544;28;20026;-61
2022/11/16 09:46:13;;;;;;;10.07;6.20;;;11.40;89.50;;;;;;4978502;28;20030;-60
2022/11/16 09:48:40;;;;;;;13.65;6.22;;;11.50;89.60;;;;;;4981045;28;20030;-59
2022/11/16 09:51:11;;;;;;;11.20;6.53;;;11.50;89.20;;;;;;4983778;28;20031;-59
2022/11/16 09:53:51;;;;;;;12.68;7.20;;;11.60;88.90;;;;;;4983475;28;20406;-61
2022/11/16 09:56:24;;;;;;;17.00;6.50;;;11.60;90.00;;;;;;4978819;28;20080;-59
2022/11/16 09:59:01;;;;;;;14.43;7.38;;;11.70;89.80;;;;;;4980352;28;20034;-62
2022/11/16 10:01:30;;;;;;;13.73;6.97;;;11.80;89.70;;;;;;4983579;28;20558;-61
2022/11/16 10:04:35;;;;;;;15.60;7.57;;;11.90;89.50;;;;;;4985705;28;20062;-58
2022/11/16 10:07:15;;;;;;;23.50;7.68;;;12.00;89.70;;;;;;4979609;28;20046;-57
2022/11/16 10:09:42;;;;;;;15.60;6.85;;;12.10;88.90;;;;;;4984233;28;20034;-57
2022/11/16 10:12:18;;;;;;;18.25;6.47;;;12.10;88.60;;;;;;4990247;28;20157;-59
2022/11/16 10:15:11;;;;;;;11.60;5.72;;;12.20;88.80;;;;;;4991887;28;20088;-58
2022/11/16 10:17:42;;;;;;;15.52;5.55;;;12.30;88.40;;;;;;4992223;28;20026;-58
2022/11/16 10:20:20;;;;;;;11.55;4.20;;;12.40;88.00;;;;;;4988197;28;20027;-60
2022/11/16 10:23:25;;;;;;;11.48;4.97;;;12.50;85.80;;;;;;4990495;28;20557;-60
2022/11/16 10:26:08;;;;;;;9.77;3.28;;;12.60;83.80;;;;;;4989545;28;20034;-61
2022/11/16 10:28:55;;;;;;;7.70;3.75;;;12.70;82.80;;;;;;4989252;28;20023;-60
2022/11/16 10:31:55;;;;;;;15.55;4.30;;;12.80;84.20;;;;;;4986843;28;20050;-61
2022/11/16 10:34:28;;;;;;;7.32;3.80;;;12.90;87.10;;;;;;4988936;28;20034;-58
2022/11/16 10:36:58;;;;;;;6.88;3.50;;;13.10;84.20;;;;;;4989554;28;20031;-58
2022/11/16 10:39:26;;;;;;;12.82;3.58;;;13.30;81.80;;;;;;4988442;28;20084;-60
2022/11/16 10:41:51;;;;;;;8.38;2.63;;;13.50;80.60;;;;;;4985267;28;20628;-59
2022/11/16 10:44:34;;;;;;;11.73;2.57;;;13.60;81.10;;;;;;4988706;28;20117;-58
2022/11/16 10:47:23;;;;;;;6.38;1.65;;;13.70;81.10;;;;;;4991032;28;20394;-59
2022/11/16 10:50:00;;;;;;;7.90;1.58;;;13.80;77.60;;;;;;4990343;28;20042;-59
2022/11/16 10:52:26;;;;;;;;;;;14.10;70.90;;;;;;4987232;28;20038;-57
2022/11/16 10:54:52;;;;;;;6.32;0.82;;;14.20;70.20;;;;;;4987855;28;19914;-57
2022/11/16 10:57:19;;;;;;;3.72;0.90;;;14.30;70.50;;;;;;4990213;28;20030;-59
2022/11/16 10:59:46;;;;;;;3.53;1.13;;;14.40;71.20;;;;;;4987339;28;20031;-58
2022/11/16 11:02:33;;;;;;;19.95;2.35;;;14.50;73.00;;;;;;4988080;28;20447;-61
2022/11/16 11:05:19;;;;;;;5.03;0.85;;;14.50;67.00;;;;;;4986415;28;20076;-63
2022/11/16 11:08:08;;;;;;;8.07;0.95;;;14.60;69.60;;;;;;4987170;28;20038;-59
2022/11/16 11:10:37;;;;;;;13.48;1.48;;;14.60;69.50;;;;;;4990663;28;20026;-57
2022/11/16 11:13:09;;;;;;;4.80;1.15;;;14.60;71.20;;;;;;4988270;28;20035;-59
2022/11/16 11:15:35;;;;;;;5.05;0.93;;;14.60;71.70;;;;;;4985739;28;20518;-57
2022/11/16 11:18:16;;;;;;;7.22;1.27;;;14.60;69.80;;;;;;4986032;28;20026;-58
2022/11/16 11:20:49;;;;;;;3.85;1.30;;;14.70;68.60;;;;;;4985783;28;20045;-56
2022/11/16 11:23:20;;;;;;;1.20;0.70;;;14.90;68.60;;;;;;4986085;28;20026;-57
2022/11/16 11:25:57;;;;;;;6.63;1.00;;;15.00;66.90;;;;;;4990344;28;20038;-57
2022/11/16 11:28:25;;;;;;;5.80;0.93;;;15.20;66.60;;;;;;4985031;28;20030;-58
2022/11/16 11:31:21;;;;;;;4.03;0.85;;;15.20;63.70;;;;;;4990106;28;20033;-57
2022/11/16 11:33:55;;;;;;;5.85;1.30;;;15.20;64.80;;;;;;4986355;28;20030;-53
2022/11/16 11:36:27;;;;;;;5.03;1.00;;;15.40;65.70;;;;;;4986161;28;20577;-57
2022/11/16 11:39:24;;;;;;;6.22;1.35;;;15.60;65.10;;;;;;4984415;28;20829;-56
2022/11/16 11:42:04;;;;;;;6.97;1.02;;;15.80;68.90;;;;;;4987153;28;20491;-56
2022/11/16 11:44:57;;;;;;;10.18;1.10;;;16.00;72.00;;;;;;4987309;28;20053;-58
2022/11/16 11:47:35;;;;;;;4.82;1.30;;;16.00;73.20;;;;;;4986765;28;20474;-59
2022/11/16 11:50:18;;;;;;;4.18;1.13;;;16.20;62.30;;;;;;4985882;28;20033;-59
2022/11/16 11:53:03;;;;;;;6.50;1.33;;;16.40;68.20;;;;;;4984354;28;20037;-56
2022/11/16 11:55:29;;;;;;;4.88;1.00;;;16.70;63.60;;;;;;4984962;28;20110;-57
2022/11/16 11:57:55;;;;;;;4.07;1.17;;;16.90;64.10;;;;;;4986195;28;20117;-57
2022/11/16 12:00:22;;;;;;;1.85;0.90;;;17.00;69.30;;;;;;4985456;28;20039;-59
2022/11/16 12:03:03;;;;;;;4.78;1.38;;;17.10;58.60;;;;;;4987601;28;20033;-55
2022/11/16 12:06:08;;;;;;;2.22;0.85;;;17.40;69.10;;;;;;4986685;28;20473;-55
2022/11/16 12:09:15;;;;;;;5.53;0.93;;;17.60;62.70;;;;;;4983206;28;20125;-59
2022/11/16 12:11:46;;;;;;;5.97;0.70;;;17.90;61.60;;;;;;4986652;28;20034;-57
2022/11/16 12:14:48;;;;;;;4.68;0.90;;;18.10;57.70;;;;;;4987197;28;20073;-55
2022/11/16 12:17:38;;;;;;;1.63;0.70;;;18.20;61.40;;;;;;4988370;28;20034;-55
2022/11/16 12:20:40;;;;;;;3.97;1.02;;;18.40;61.40;;;;;;4986576;28;20034;-56
2022/11/16 12:23:37;;;;;;;6.57;0.98;;;18.60;54.20;;;;;;4985406;28;22071;-55
2022/11/16 12:26:12;;;;;;;4.97;1.00;;;18.70;54.50;;;;;;4985793;28;20034;-61
2022/11/16 12:29:02;;;;;;;2.13;0.80;;;18.80;53.60;;;;;;4988264;28;20438;-60
2022/11/16 12:31:36;;;;;;;6.85;2.90;;;19.00;51.30;;;;;;4985927;28;20026;-60
2022/11/16 12:34:08;;;;;;;6.93;2.83;;;19.00;51.30;;;;;;4986292;28;20042;-57
2022/11/16 12:36:43;;;;;;;4.93;1.05;;;18.80;52.40;;;;;;4987716;28;20034;-58
2022/11/16 12:39:32;;;;;;;5.82;1.00;;;18.70;50.30;;;;;;4979789;28;20565;-66
2022/11/16 12:42:31;;;;;;;5.13;1.23;;;18.90;50.00;;;;;;4985100;28;20046;-56
2022/11/16 12:45:21;;;;;;;3.40;1.20;;;19.30;50.00;;;;;;4985527;28;20042;-66
2022/11/16 12:48:04;;;;;;;5.28;1.55;;;19.40;50.60;;;;;;4981698;28;20610;-61
2022/11/16 12:50:39;;;;;;;4.90;1.02;;;19.80;49.30;;;;;;4983491;28;20506;-60
2022/11/16 12:53:17;;;;;;;3.13;0.95;;;20.10;50.80;;;;;;4986765;28;20042;-63
2022/11/16 12:56:07;;;;;;;4.90;1.33;;;20.30;51.50;;;;;;4985746;28;20093;-61
2022/11/16 12:58:56;;;;;;;3.83;0.88;;;20.60;49.60;;;;;;4976599;28;20026;-60
2022/11/16 13:01:46;;;;;;;2.47;0.80;;;20.50;47.80;;;;;;4985842;28;20061;-62
2022/11/16 13:04:19;;;;;;;3.95;1.40;;;20.80;50.00;;;;;;4983883;28;20529;-65
2022/11/16 13:06:59;;;;;;;3.42;1.40;;;20.70;48.20;;;;;;4986406;28;20038;-64
2022/11/16 13:09:28;;;;;;;4.97;1.20;;;20.50;49.40;;;;;;4984876;28;20030;-64
2022/11/16 13:11:57;;;;;;;3.33;0.90;;;20.40;49.10;;;;;;4986360;28;20062;-58
2022/11/16 13:14:37;;;;;;;3.92;0.90;;;20.40;49.40;;;;;;4984921;28;20046;-62
2022/11/16 13:17:04;;;;;;;2.22;0.82;;;20.60;49.00;;;;;;4987810;28;20037;-60
2022/11/16 13:19:31;;;;;;;3.30;1.10;;;20.50;54.40;;;;;;4983627;28;20026;-57
2022/11/16 13:22:37;;;;;;;4.82;1.15;;;20.50;46.70;;;;;;4985925;28;20109;-56
2022/11/16 13:25:16;;;;;;;4.97;0.68;;;20.20;49.20;;;;;;4978546;28;20117;-57
2022/11/16 13:28:23;;;;;;;5.22;1.08;;;20.10;48.40;;;;;;4982885;28;20034;-57
2022/11/16 13:31:17;;;;;;;5.60;0.95;;;20.10;47.50;;;;;;4985840;28;20045;-57
2022/11/16 13:33:50;;;;;;;2.70;0.75;;;20.40;53.00;;;;;;4984356;28;20768;-57
2022/11/16 13:36:31;;;;;;;1.50;0.80;;;20.80;49.40;;;;;;5016366;28;20088;-56
2022/11/16 13:38:57;;;;;;;2.22;0.60;;;21.10;52.00;;;;;;4985435;28;20093;-58
2022/11/16 13:41:37;;;;;;;3.47;1.10;;;21.20;51.00;;;;;;4986897;28;20041;-60
2022/11/16 13:44:11;;;;;;;4.55;1.40;;;21.40;50.80;;;;;;4984812;28;20058;-57
2022/11/16 13:47:03;;;;;;;4.53;1.08;;;21.80;50.40;;;;;;4984386;28;20038;-56
2022/11/16 13:49:31;;;;;;;5.88;1.33;;;21.70;49.80;;;;;;4985574;28;20109;-58
2022/11/16 13:52:11;;;;;;;1.40;0.77;;;21.70;46.70;;;;;;4984734;28;20069;-56
2022/11/16 13:54:43;;;;;;;2.15;0.90;;;21.60;49.10;;;;;;4983011;28;20033;-59
2022/11/16 13:57:30;;;;;;;6.18;0.90;;;21.20;45.40;;;;;;4983233;28;20503;-56